Terminal Aerodrome Forecast
Issued by NWS Charleston, WV

Current Version | Previous Version | Text Only | Print | Product List | Glossary Off
Versions: 1 2 3 4 5 6 7 8 9 10 11 12 13 14 15 16 17 18 19 20 21 22 23 24 25

791
FTUS41 KRLX 120843 AAA
TAFCRW
TAF AMD
KCRW 120843Z 1209/1306 27010G18KT P6SM OVC040
     FM121200 26011G17KT 6SM -SHSN OVC035
     FM121400 27013G24KT 4SM -SHSN OVC015
     FM121800 29010G23KT P6SM BKN035
     FM122300 29010G21KT 3SM -SHSN OVC015
     FM130300 28009G19KT P6SM BKN035=

USA.gov is the U.S. government's official web portal to all federal, state and local government web resources and services.